createdAt,value
2019-02-18T00:01:52.076Z,19.67
2019-02-18T00:04:23.512Z,23.18
2019-02-18T00:06:54.911Z,19.20
2019-02-18T00:09:26.475Z,21.00
2019-02-18T00:11:58.042Z,21.37
2019-02-18T00:14:29.365Z,21.73
2019-02-18T00:17:01.062Z,21.23
2019-02-18T00:19:32.303Z,19.98
2019-02-18T00:22:04.098Z,21.27
2019-02-18T00:24:35.730Z,18.20
2019-02-18T00:27:07.266Z,18.05
2019-02-18T00:29:39.046Z,21.33
2019-02-18T00:32:10.512Z,22.35
2019-02-18T00:34:42.009Z,23.52
2019-02-18T00:37:13.572Z,21.60
2019-02-18T00:39:45.008Z,24.27
2019-02-18T00:42:16.269Z,19.98
2019-02-18T00:44:47.760Z,19.25
2019-02-18T00:47:19.119Z,21.02
2019-02-18T00:49:50.572Z,21.90
2019-02-18T00:52:21.934Z,22.05
2019-02-18T00:54:53.560Z,24.85
2019-02-18T00:57:24.969Z,19.65
2019-02-18T00:59:56.281Z,24.98
2019-02-18T01:02:27.935Z,28.30
2019-02-18T01:04:59.663Z,23.38
2019-02-18T01:07:34.887Z,22.80
2019-02-18T01:10:04.360Z,18.52
2019-02-18T01:12:35.974Z,20.57
2019-02-18T01:15:09.057Z,22.40
2019-02-18T01:17:40.522Z,21.30
2019-02-18T01:20:12.682Z,17.73
2019-02-18T01:22:44.231Z,21.60
2019-02-18T01:25:16.061Z,19.35
2019-02-18T01:27:47.679Z,20.60
2019-02-18T01:30:19.520Z,21.62
2019-02-18T01:32:50.997Z,17.48
2019-02-18T01:35:22.610Z,18.87
2019-02-18T01:37:54.253Z,19.30
2019-02-18T01:40:25.685Z,21.27
2019-02-18T01:42:57.146Z,18.92
2019-02-18T01:45:28.665Z,21.30
2019-02-18T01:48:00.284Z,21.55
2019-02-18T01:50:31.633Z,22.45
2019-02-18T01:53:03.174Z,21.05
2019-02-18T01:55:34.767Z,23.87
2019-02-18T01:58:06.361Z,25.40
2019-02-18T02:00:38.181Z,21.27
2019-02-18T02:03:09.810Z,21.73
2019-02-18T02:05:41.326Z,22.70
2019-02-18T02:08:13.074Z,23.50
2019-02-18T02:10:44.439Z,23.32
2019-02-18T02:13:31.969Z,24.20
2019-02-18T02:16:05.231Z,24.25
2019-02-18T02:18:36.858Z,21.68
2019-02-18T02:21:08.336Z,21.33
2019-02-18T02:23:39.760Z,22.98
2019-02-18T02:26:11.211Z,22.17
2019-02-18T02:28:42.742Z,21.97
2019-02-18T02:31:13.981Z,19.62
2019-02-18T02:33:45.365Z,26.07
2019-02-18T02:36:16.976Z,21.60
2019-02-18T02:38:48.642Z,22.93
2019-02-18T02:41:20.406Z,25.75
2019-02-18T02:43:51.955Z,25.80
2019-02-18T02:46:23.483Z,26.05
2019-02-18T02:48:54.850Z,25.72
2019-02-18T02:51:26.384Z,25.02
2019-02-18T02:53:58.000Z,24.15
2019-02-18T02:56:29.709Z,22.75
2019-02-18T02:59:01.298Z,24.32
2019-02-18T03:01:32.673Z,22.98
2019-02-18T03:04:04.012Z,23.73
2019-02-18T03:06:35.368Z,24.87
2019-02-18T03:09:09.179Z,23.47
2019-02-18T03:11:40.402Z,23.92
2019-02-18T03:14:11.670Z,23.62
2019-02-18T03:16:43.129Z,23.07
2019-02-18T03:19:14.633Z,23.35
2019-02-18T03:21:46.182Z,23.32
2019-02-18T03:24:17.531Z,23.60
2019-02-18T03:26:48.776Z,24.23
2019-02-18T03:30:21.984Z,23.83
2019-02-18T03:32:56.388Z,22.82
2019-02-18T03:35:28.053Z,22.50
2019-02-18T03:37:59.485Z,25.35
2019-02-18T03:40:30.897Z,27.20
2019-02-18T03:43:02.371Z,24.25
2019-02-18T03:45:35.023Z,23.25
2019-02-18T03:48:06.444Z,23.38
2019-02-18T03:50:37.863Z,30.32
2019-02-18T03:53:09.443Z,30.08
2019-02-18T03:55:41.096Z,24.23
2019-02-18T03:58:12.637Z,24.55
2019-02-18T04:00:44.026Z,23.22
2019-02-18T04:03:15.618Z,23.83
2019-02-18T04:05:47.113Z,22.62
2019-02-18T04:08:18.359Z,22.67
2019-02-18T04:10:49.604Z,23.20
2019-02-18T04:13:20.971Z,24.35
2019-02-18T04:15:52.404Z,23.65
2019-02-18T04:18:23.686Z,26.27
2019-02-18T04:20:55.309Z,24.80
2019-02-18T04:23:27.025Z,27.62
2019-02-18T04:25:58.823Z,26.57
2019-02-18T04:28:30.438Z,24.20
2019-02-18T04:31:01.775Z,23.60
2019-02-18T04:33:33.485Z,27.40
2019-02-18T04:36:05.087Z,26.12
2019-02-18T04:38:36.452Z,30.40
2019-02-18T04:41:08.169Z,26.57
2019-02-18T04:43:41.985Z,25.32
2019-02-18T04:46:12.823Z,25.20
2019-02-18T04:48:44.295Z,26.55
2019-02-18T04:51:15.594Z,26.35
2019-02-18T04:53:48.321Z,28.23
2019-02-18T04:56:19.582Z,27.98
2019-02-18T04:58:51.158Z,29.90
2019-02-18T05:01:23.652Z,30.62
2019-02-18T05:03:55.396Z,29.65
2019-02-18T05:06:26.971Z,34.43
2019-02-18T05:09:05.321Z,32.53
2019-02-18T05:11:31.529Z,34.88
2019-02-18T05:14:03.164Z,32.93
2019-02-18T05:16:34.603Z,33.28
2019-02-18T05:19:06.565Z,32.13
2019-02-18T05:21:38.194Z,32.85
2019-02-18T05:24:10.572Z,35.05
2019-02-18T05:26:42.123Z,35.75
2019-02-18T05:29:13.572Z,33.05
2019-02-18T05:31:45.141Z,33.75
2019-02-18T05:34:16.559Z,32.45
2019-02-18T05:36:48.089Z,33.23
2019-02-18T05:39:19.676Z,32.55
2019-02-18T05:41:50.937Z,34.33
2019-02-18T05:44:22.194Z,42.45
2019-02-18T05:46:53.732Z,35.73
2019-02-18T05:49:25.456Z,36.65
2019-02-18T05:51:57.018Z,34.13
2019-02-18T05:54:28.408Z,34.80
2019-02-18T05:56:59.803Z,36.73
2019-02-18T05:59:31.685Z,36.33
2019-02-18T06:02:03.385Z,39.73
2019-02-18T06:04:34.729Z,36.15
2019-02-18T06:07:05.970Z,36.28
2019-02-18T06:09:37.428Z,39.88
2019-02-18T06:12:09.048Z,36.63
2019-02-18T06:14:40.660Z,37.45
2019-02-18T06:17:12.021Z,39.23
2019-02-18T06:19:43.611Z,41.77
2019-02-18T06:22:15.254Z,41.08
2019-02-18T06:24:46.734Z,42.23
2019-02-18T06:27:18.851Z,45.05
2019-02-18T06:29:50.715Z,47.58
2019-02-18T06:32:22.189Z,47.53
2019-02-18T06:34:53.668Z,50.00
2019-02-18T06:37:25.293Z,48.25
2019-02-18T06:39:56.735Z,49.55
2019-02-18T06:42:28.183Z,51.30
2019-02-18T06:45:30.753Z,49.45
2019-02-18T06:48:05.614Z,45.80
2019-02-18T06:50:37.250Z,44.55
2019-02-18T06:53:08.691Z,43.92
2019-02-18T06:55:40.319Z,45.55
2019-02-18T06:58:42.310Z,45.95
2019-02-18T07:01:41.315Z,43.78
2019-02-18T07:04:32.281Z,43.68
2019-02-18T07:07:25.085Z,38.58
2019-02-18T07:10:03.162Z,38.60
2019-02-18T07:12:44.363Z,39.58
2019-02-18T07:15:15.811Z,40.10
2019-02-18T07:17:47.425Z,41.13
2019-02-18T07:20:18.986Z,43.45
2019-02-18T07:22:50.573Z,38.35
2019-02-18T07:25:22.365Z,40.40
2019-02-18T07:27:53.998Z,41.63
2019-02-18T07:30:25.699Z,41.65
2019-02-18T07:32:57.431Z,42.45
2019-02-18T07:35:28.701Z,43.48
2019-02-18T07:38:00.179Z,43.45
2019-02-18T07:40:31.766Z,47.38
2019-02-18T07:43:03.227Z,53.33
2019-02-18T07:45:35.052Z,53.78
2019-02-18T07:48:06.609Z,56.15
2019-02-18T07:50:38.186Z,55.90
2019-02-18T07:53:09.875Z,53.15
2019-02-18T07:55:41.465Z,44.23
2019-02-18T07:58:13.204Z,40.80
2019-02-18T08:00:44.606Z,37.80
2019-02-18T08:03:15.913Z,35.83
2019-02-18T08:05:47.586Z,38.60
2019-02-18T08:08:19.266Z,35.60
2019-02-18T08:10:50.774Z,31.80
2019-02-18T08:13:22.574Z,31.25
2019-02-18T08:15:54.245Z,31.05
2019-02-18T08:18:25.890Z,29.52
2019-02-18T08:20:57.762Z,28.38
2019-02-18T08:23:29.333Z,27.85
2019-02-18T08:26:00.572Z,27.67
2019-02-18T08:28:32.319Z,30.48
2019-02-18T08:31:04.106Z,28.90
2019-02-18T08:33:35.503Z,29.23
2019-02-18T08:36:07.318Z,29.20
2019-02-18T08:38:38.950Z,28.20
2019-02-18T08:41:10.389Z,31.73
2019-02-18T08:43:41.974Z,30.97
2019-02-18T08:46:13.554Z,30.43
2019-02-18T08:48:44.927Z,31.87
2019-02-18T08:51:16.516Z,33.08
2019-02-18T08:53:48.138Z,32.85
2019-02-18T08:56:19.893Z,32.42
2019-02-18T08:58:51.637Z,31.25
2019-02-18T09:01:23.139Z,30.75
2019-02-18T09:03:54.654Z,30.77
2019-02-18T09:06:26.395Z,30.55
2019-02-18T09:08:58.093Z,34.18
2019-02-18T09:11:29.614Z,36.28
2019-02-18T09:14:02.177Z,35.63
2019-02-18T09:16:34.781Z,37.38
2019-02-18T09:19:06.344Z,36.75
2019-02-18T09:21:37.999Z,40.03
2019-02-18T09:24:26.322Z,39.75
2019-02-18T09:26:58.098Z,39.70
2019-02-18T09:29:29.564Z,41.45
2019-02-18T09:32:02.139Z,40.10
2019-02-18T09:34:33.485Z,39.60
2019-02-18T09:37:05.242Z,35.48
2019-02-18T09:39:36.452Z,42.57
2019-02-18T09:42:08.143Z,45.73
2019-02-18T09:44:39.674Z,125.35
2019-02-18T09:47:11.015Z,50.27
2019-02-18T09:49:42.611Z,38.60
2019-02-18T09:52:14.035Z,40.60
2019-02-18T09:54:45.452Z,39.53
2019-02-18T09:57:16.512Z,43.90
2019-02-18T09:59:48.045Z,37.57
2019-02-18T10:02:19.236Z,36.83
2019-02-18T10:04:50.771Z,34.20
2019-02-18T10:07:21.932Z,36.50
2019-02-18T10:09:53.097Z,30.67
2019-02-18T10:12:24.466Z,31.63
2019-02-18T10:14:55.476Z,28.67
2019-02-18T10:17:26.698Z,28.87
2019-02-18T10:19:57.821Z,29.17
2019-02-18T10:22:28.894Z,28.93
2019-02-18T10:25:00.607Z,29.23
2019-02-18T10:27:31.629Z,26.10
2019-02-18T10:30:03.145Z,24.30
2019-02-18T10:32:34.954Z,24.63
2019-02-18T10:35:07.633Z,23.50
2019-02-18T10:37:38.921Z,25.60
2019-02-18T10:40:10.954Z,23.17
2019-02-18T10:42:42.330Z,22.50
2019-02-18T10:45:13.650Z,21.77
2019-02-18T10:47:44.794Z,21.63
2019-02-18T10:50:16.227Z,24.30
2019-02-18T10:52:47.725Z,32.50
2019-02-18T10:55:19.319Z,21.30
2019-02-18T10:57:50.637Z,21.10
2019-02-18T11:00:21.796Z,21.37
2019-02-18T11:02:52.875Z,23.70
2019-02-18T11:05:24.168Z,21.33
2019-02-18T11:07:55.530Z,26.13
2019-02-18T11:10:26.747Z,21.23
2019-02-18T11:12:58.013Z,22.00
2019-02-18T11:15:29.554Z,21.80
2019-02-18T11:18:00.821Z,21.63
2019-02-18T11:20:32.227Z,22.00
2019-02-18T11:23:03.402Z,21.20
2019-02-18T11:25:34.726Z,19.43
2019-02-18T11:28:06.258Z,20.47
2019-02-18T11:30:39.188Z,20.47
2019-02-18T11:33:10.735Z,20.00
2019-02-18T11:35:42.096Z,18.77
2019-02-18T11:38:13.650Z,19.83
2019-02-18T11:40:44.942Z,19.43
2019-02-18T11:43:16.316Z,16.47
2019-02-18T11:45:47.472Z,16.63
2019-02-18T11:48:18.594Z,15.87
2019-02-18T11:50:49.613Z,16.63
2019-02-18T11:53:21.065Z,15.30
2019-02-18T11:55:52.357Z,14.83
2019-02-18T11:58:23.673Z,16.17
2019-02-18T12:00:55.009Z,18.97
2019-02-18T12:03:26.325Z,16.60
2019-02-18T12:05:57.439Z,16.70
2019-02-18T12:08:28.870Z,14.47
2019-02-18T12:11:00.139Z,16.43
2019-02-18T12:13:31.406Z,14.67
2019-02-18T12:16:02.770Z,20.83
2019-02-18T12:18:33.958Z,15.93
2019-02-18T12:21:05.504Z,15.83
2019-02-18T12:23:36.849Z,15.80
2019-02-18T12:26:08.223Z,15.80
2019-02-18T12:28:39.641Z,14.60
2019-02-18T12:31:11.293Z,13.93
2019-02-18T12:33:42.573Z,14.43
2019-02-18T12:36:14.062Z,13.90
2019-02-18T12:38:45.298Z,13.07
2019-02-18T12:41:16.595Z,13.27
2019-02-18T12:43:48.197Z,12.53
2019-02-18T12:46:19.565Z,13.77
2019-02-18T12:48:50.949Z,12.80
2019-02-18T12:51:22.467Z,12.33
2019-02-18T12:53:53.789Z,11.87
2019-02-18T12:56:26.913Z,12.50
2019-02-18T12:58:58.204Z,11.50
2019-02-18T13:01:29.488Z,12.47
2019-02-18T13:04:00.787Z,12.10
2019-02-18T13:06:32.293Z,11.97
2019-02-18T13:09:04.696Z,11.70
2019-02-18T13:11:37.100Z,11.83
2019-02-18T13:14:08.311Z,10.63
2019-02-18T13:16:39.348Z,11.10
2019-02-18T13:19:10.769Z,10.53
2019-02-18T13:21:41.941Z,11.50
2019-02-18T13:24:13.086Z,12.13
2019-02-18T13:26:44.733Z,11.20
2019-02-18T13:29:16.298Z,11.93
2019-02-18T13:31:47.648Z,10.60
2019-02-18T13:34:18.921Z,11.43
2019-02-18T13:36:50.012Z,10.77
2019-02-18T13:39:21.635Z,10.47
2019-02-18T13:41:52.569Z,11.40
2019-02-18T13:44:23.725Z,11.50
2019-02-18T13:46:54.639Z,10.97
2019-02-18T13:49:25.886Z,11.07
2019-02-18T13:51:57.551Z,11.37
2019-02-18T13:54:28.798Z,10.47
2019-02-18T13:57:00.026Z,11.37
2019-02-18T13:59:31.362Z,11.33
2019-02-18T14:02:02.889Z,11.43
2019-02-18T14:04:34.623Z,11.27
2019-02-18T14:07:05.809Z,11.73
2019-02-18T14:09:36.933Z,11.47
2019-02-18T14:12:15.878Z,11.50
2019-02-18T14:14:42.044Z,11.67
2019-02-18T14:17:13.528Z,12.83
2019-02-18T14:19:44.908Z,11.90
2019-02-18T14:22:16.235Z,11.30
2019-02-18T14:24:47.351Z,11.73
2019-02-18T14:27:19.719Z,11.20
2019-02-18T14:29:51.363Z,12.73
2019-02-18T14:32:22.571Z,12.23
2019-02-18T14:34:54.007Z,12.07
2019-02-18T14:37:25.172Z,11.43
2019-02-18T14:39:56.535Z,15.37
2019-02-18T14:42:27.958Z,14.33
2019-02-18T14:44:59.223Z,13.43
2019-02-18T14:47:30.160Z,12.87
2019-02-18T14:50:01.394Z,13.47
2019-02-18T14:52:32.736Z,12.73
2019-02-18T14:55:04.218Z,13.03
2019-02-18T14:57:35.573Z,13.60
2019-02-18T15:00:15.634Z,13.57
2019-02-18T15:02:47.097Z,14.40
2019-02-18T15:05:18.237Z,13.60
2019-02-18T15:07:49.781Z,12.60
2019-02-18T15:10:21.088Z,13.27
2019-02-18T15:12:53.518Z,12.70
2019-02-18T15:15:24.760Z,12.73
2019-02-18T15:17:55.964Z,13.87
2019-02-18T15:20:26.978Z,13.30
2019-02-18T15:22:58.061Z,15.87
2019-02-18T15:25:29.308Z,17.33
2019-02-18T15:28:00.955Z,15.30
2019-02-18T15:30:32.237Z,15.43
2019-02-18T15:33:15.637Z,16.20
2019-02-18T15:35:47.246Z,17.90
2019-02-18T15:38:18.782Z,19.33
2019-02-18T15:40:50.223Z,28.73
2019-02-18T15:43:21.985Z,35.93
2019-02-18T15:45:53.394Z,33.67
2019-02-18T15:48:24.889Z,33.80
2019-02-18T15:50:59.111Z,39.53
2019-02-18T15:53:31.521Z,36.53
2019-02-18T15:56:03.044Z,36.90
2019-02-18T15:58:34.329Z,34.47
2019-02-18T16:01:06.315Z,34.03
2019-02-18T16:03:37.707Z,48.07
2019-02-18T16:06:08.979Z,46.77
2019-02-18T16:08:41.523Z,44.60
2019-02-18T16:11:12.707Z,47.53
2019-02-18T16:13:44.027Z,48.27
2019-02-18T16:16:15.273Z,55.27
2019-02-18T16:18:46.583Z,55.87
2019-02-18T16:21:18.334Z,72.97
2019-02-18T16:23:49.607Z,79.00
2019-02-18T16:26:20.913Z,70.53
2019-02-18T16:28:52.169Z,76.20
2019-02-18T16:31:23.480Z,72.33
2019-02-18T16:33:54.622Z,107.03
2019-02-18T16:36:25.979Z,96.83
2019-02-18T16:38:57.514Z,99.30
2019-02-18T16:41:28.954Z,82.10
2019-02-18T16:44:00.356Z,79.63
2019-02-18T16:46:31.702Z,72.23
2019-02-18T16:49:03.340Z,81.47
2019-02-18T16:51:34.353Z,76.03
2019-02-18T16:54:05.704Z,76.67
2019-02-18T16:56:37.067Z,80.30
2019-02-18T16:59:08.508Z,77.83
2019-02-18T17:01:40.010Z,76.17
2019-02-18T17:04:11.009Z,69.13
2019-02-18T17:06:42.398Z,70.13
2019-02-18T17:09:14.607Z,63.50
2019-02-18T17:11:45.987Z,86.27
2019-02-18T17:14:17.190Z,67.77
2019-02-18T17:16:48.441Z,64.70
2019-02-18T17:19:19.703Z,65.70
2019-02-18T17:21:50.878Z,62.20
2019-02-18T17:24:22.087Z,65.73
2019-02-18T17:26:54.225Z,67.05
2019-02-18T17:29:25.348Z,69.80
2019-02-18T17:31:59.352Z,75.62
2019-02-18T17:34:30.686Z,76.37
2019-02-18T17:37:02.681Z,66.45
2019-02-18T17:39:33.955Z,67.03
2019-02-18T17:42:05.860Z,73.50
2019-02-18T17:44:37.417Z,66.05
2019-02-18T17:47:08.658Z,82.47
2019-02-18T17:49:40.180Z,96.08
2019-02-18T17:52:11.592Z,82.88
2019-02-18T17:54:43.179Z,77.30
2019-02-18T17:57:15.088Z,68.10
2019-02-18T17:59:46.534Z,74.17
2019-02-18T18:02:18.257Z,73.40
2019-02-18T18:04:49.779Z,71.55
2019-02-18T18:07:21.210Z,72.85
2019-02-18T18:09:53.754Z,72.53
2019-02-18T18:12:26.571Z,69.07
2019-02-18T18:14:58.201Z,69.07
2019-02-18T18:17:29.947Z,66.92
2019-02-18T18:20:01.492Z,64.45
2019-02-18T18:22:33.150Z,59.85
2019-02-18T18:25:04.822Z,59.93
2019-02-18T18:27:36.647Z,51.28
2019-02-18T18:30:09.397Z,52.98
2019-02-18T18:32:40.902Z,52.27
2019-02-18T18:35:13.639Z,63.28
2019-02-18T18:37:45.251Z,50.75
2019-02-18T18:40:16.950Z,50.78
2019-02-18T18:42:48.380Z,47.35
2019-02-18T18:45:20.162Z,48.52
2019-02-18T18:47:51.793Z,47.00
2019-02-18T18:50:23.505Z,43.83
2019-02-18T18:52:55.978Z,42.58
2019-02-18T18:55:27.242Z,45.15
2019-02-18T18:57:58.495Z,41.68
2019-02-18T19:00:29.880Z,44.65
2019-02-18T19:03:01.317Z,40.90
2019-02-18T19:05:32.901Z,45.48
2019-02-18T19:08:04.347Z,41.48
2019-02-18T19:10:35.671Z,40.00
2019-02-18T19:13:07.028Z,41.77
2019-02-18T19:15:38.920Z,39.48
2019-02-18T19:18:10.475Z,39.88
2019-02-18T19:20:42.111Z,38.53
2019-02-18T19:23:13.734Z,39.00
2019-02-18T19:25:45.000Z,39.48
2019-02-18T19:28:17.009Z,36.80
2019-02-18T19:30:48.694Z,35.00
2019-02-18T19:33:20.978Z,35.63
2019-02-18T19:35:52.707Z,33.70
2019-02-18T19:38:23.975Z,32.67
2019-02-18T19:40:55.389Z,46.45
2019-02-18T19:43:26.642Z,36.50
2019-02-18T19:45:58.166Z,33.25
2019-02-18T19:48:29.395Z,35.60
2019-02-18T19:51:00.992Z,40.80
2019-02-18T19:53:32.655Z,30.10
2019-02-18T19:56:04.020Z,33.40
2019-02-18T19:58:36.749Z,31.77
2019-02-18T20:01:08.496Z,32.93
2019-02-18T20:03:39.995Z,35.05
2019-02-18T20:06:11.694Z,36.23
2019-02-18T20:08:42.950Z,37.30
2019-02-18T20:11:14.254Z,38.85
2019-02-18T20:13:45.729Z,37.30
2019-02-18T20:16:17.581Z,43.10
2019-02-18T20:18:48.934Z,37.35
2019-02-18T20:21:20.294Z,36.40
2019-02-18T20:23:51.650Z,37.45
2019-02-18T20:26:22.875Z,34.75
2019-02-18T20:28:54.110Z,32.50
2019-02-18T20:31:25.645Z,34.48
2019-02-18T20:33:57.155Z,32.88
2019-02-18T20:36:28.493Z,35.13
2019-02-18T20:38:59.827Z,33.73
2019-02-18T20:41:33.296Z,32.75
2019-02-18T20:44:07.462Z,33.95
2019-02-18T20:46:38.247Z,35.38
2019-02-18T20:49:09.869Z,35.28
2019-02-18T20:51:41.394Z,33.23
2019-02-18T20:54:13.237Z,34.27
2019-02-18T20:56:44.748Z,36.03
2019-02-18T20:59:16.303Z,36.42
2019-02-18T21:01:47.694Z,36.42
2019-02-18T21:04:19.308Z,38.08
2019-02-18T21:06:51.196Z,38.78
2019-02-18T21:09:22.853Z,35.80
2019-02-18T21:11:54.144Z,37.85
2019-02-18T21:14:25.563Z,38.30
2019-02-18T21:16:57.142Z,37.65
2019-02-18T21:19:28.771Z,39.73
2019-02-18T21:22:00.340Z,35.60
2019-02-18T21:24:31.923Z,36.85
2019-02-18T21:27:03.575Z,37.38
2019-02-18T21:29:35.094Z,36.63
2019-02-18T21:32:06.692Z,36.53
2019-02-18T21:34:38.257Z,38.28
2019-02-18T21:37:09.864Z,36.05
2019-02-18T21:39:41.324Z,38.13
2019-02-18T21:42:12.758Z,37.35
2019-02-18T21:44:44.318Z,36.60
2019-02-18T21:47:15.663Z,37.13
2019-02-18T21:49:47.144Z,40.80
2019-02-18T21:52:18.521Z,45.50
2019-02-18T21:54:50.054Z,42.65
2019-02-18T21:57:21.618Z,42.20
2019-02-18T21:59:53.031Z,37.23
2019-02-18T22:02:24.825Z,45.73
2019-02-18T22:04:56.427Z,39.38
2019-02-18T22:07:27.893Z,40.38
2019-02-18T22:09:59.226Z,38.73
2019-02-18T22:12:30.657Z,37.05
2019-02-18T22:15:01.990Z,36.10
2019-02-18T22:17:33.348Z,34.45
2019-02-18T22:20:04.900Z,35.10
2019-02-18T22:22:37.177Z,35.13
2019-02-18T22:25:09.386Z,37.03
2019-02-18T22:27:40.978Z,34.58
2019-02-18T22:30:12.688Z,34.25
2019-02-18T22:32:44.049Z,34.98
2019-02-18T22:35:15.914Z,33.13
2019-02-18T22:37:47.524Z,33.30
2019-02-18T22:40:18.969Z,34.23
2019-02-18T22:42:50.487Z,33.78
2019-02-18T22:45:22.082Z,33.95
2019-02-18T22:47:53.577Z,31.00
2019-02-18T22:50:25.350Z,32.40
2019-02-18T22:52:57.002Z,31.57
2019-02-18T22:55:28.799Z,31.60
2019-02-18T22:58:01.495Z,33.13
2019-02-18T23:00:46.165Z,31.30
2019-02-18T23:03:18.352Z,31.00
2019-02-18T23:05:49.876Z,30.30
2019-02-18T23:08:21.635Z,29.90
2019-02-18T23:10:53.444Z,29.95
2019-02-18T23:13:25.514Z,29.95
2019-02-18T23:15:58.584Z,29.48
2019-02-18T23:18:30.214Z,30.55
2019-02-18T23:21:01.604Z,29.30
2019-02-18T23:23:32.843Z,29.77
2019-02-18T23:26:04.379Z,30.60
2019-02-18T23:28:36.027Z,29.37
2019-02-18T23:31:07.612Z,28.57
2019-02-18T23:33:39.463Z,29.20
2019-02-18T23:36:11.106Z,30.90
2019-02-18T23:38:42.571Z,30.95
2019-02-18T23:41:14.132Z,29.82
2019-02-18T23:43:45.668Z,31.40
2019-02-18T23:46:17.077Z,30.00
2019-02-18T23:48:48.330Z,29.63
2019-02-18T23:51:19.858Z,28.47
2019-02-18T23:53:51.355Z,30.70
2019-02-18T23:56:23.008Z,29.37
2019-02-18T23:58:55.613Z,28.65
